Time;durP1;ratioP1;P1;durP2;ratioP2;P2;SDS_P1;SDS_P2;PMS_P1;PMS_P2;Temp;Humidity;BMP_temperature;BMP_pressure;BME280_temperature;BME280_humidity;BME280_pressure;Samples;Min_cycle;Max_cycle;Signal;HPM_P1;HPM_P2
2023/11/11 00:01:58;;;;;;;1999.90;999.90;;;;;;;11.00;93.99;99798.06;10379299;28;20050;-66
2023/11/11 00:07:01;;;;;;;1999.90;999.90;;;;;;;10.61;94.98;99800.91;10378968;28;20474;-66
2023/11/11 00:12:07;;;;;;;1999.90;999.90;;;;;;;10.80;94.38;99810.00;10378758;28;20050;-65
2023/11/11 00:17:11;;;;;;;1999.90;999.90;;;;;;;11.20;91.48;99802.63;10378498;28;20060;-65
2023/11/11 00:22:14;;;;;;;1999.90;999.90;;;;;;;10.53;94.44;99808.47;10378435;28;20448;-66
2023/11/11 00:27:16;;;;;;;1999.90;999.90;;;;;;;10.56;94.68;99811.69;10378196;28;20129;-65
2023/11/11 00:32:19;;;;;;;1999.90;999.90;;;;;;;10.41;94.80;99818.03;10378258;28;20049;-66
2023/11/11 00:37:22;;;;;;;1999.90;999.90;;;;;;;10.97;92.04;99817.44;10377697;28;20456;-65
2023/11/11 00:42:25;;;;;;;1999.90;999.90;;;;;;;10.87;91.23;99814.66;10378121;28;20129;-66
2023/11/11 00:47:27;;;;;;;1999.90;999.90;;;;;;;10.68;90.93;99822.22;10360238;28;20050;-66
2023/11/11 00:52:30;;;;;;;1999.90;999.90;;;;;;;10.47;91.27;99824.59;10377201;28;20549;-66
2023/11/11 00:57:32;;;;;;;1999.90;999.90;;;;;;;10.53;91.50;99826.78;10376860;28;20405;-65
2023/11/11 01:02:34;;;;;;;1999.90;999.90;;;;;;;10.42;90.39;99835.41;10376998;28;20129;-65
2023/11/11 01:07:37;;;;;;;1999.90;999.90;;;;;;;10.71;89.44;99835.09;10376534;28;20487;-66
2023/11/11 01:12:39;;;;;;;1999.90;999.90;;;;;;;10.30;91.85;99851.97;10376388;28;20057;-65
2023/11/11 01:17:42;;;;;;;1999.90;999.90;;;;;;;10.66;89.35;99853.75;10376159;28;20049;-65
2023/11/11 01:22:46;;;;;;;1999.90;999.90;;;;;;;10.29;91.63;99853.75;10376219;28;20100;-66
2023/11/11 01:27:48;;;;;;;1999.90;999.90;;;;;;;10.43;92.87;99858.00;10358588;28;20045;-66
2023/11/11 01:32:51;;;;;;;1999.90;999.90;;;;;;;10.49;91.69;99873.28;10358191;28;20484;-66
2023/11/11 01:37:53;;;;;;;1999.90;999.90;;;;;;;9.95;94.03;99878.81;10375658;28;20053;-66
2023/11/11 01:42:58;;;;;;;1999.90;999.90;;;;;;;10.46;91.66;99891.00;10375985;28;20052;-65
2023/11/11 01:48:01;;;;;;;1999.90;999.90;;;;;;;10.33;91.70;99888.41;10374553;28;20417;-66
2023/11/11 01:53:08;;;;;;;1999.90;999.90;;;;;;;10.55;91.94;99900.78;10341522;28;20567;-66
2023/11/11 01:58:10;;;;;;;1999.90;999.90;;;;;;;10.35;94.47;99892.56;10374778;28;20396;-66
2023/11/11 02:03:13;;;;;;;1999.90;999.90;;;;;;;10.43;93.84;99905.13;10374625;28;20485;-66
2023/11/11 02:08:16;;;;;;;1999.90;999.90;;;;;;;10.62;90.04;99903.81;10375059;28;20049;-65
2023/11/11 02:13:18;;;;;;;1999.90;999.90;;;;;;;10.22;91.57;99910.03;10374608;28;20053;-66
2023/11/11 02:18:20;;;;;;;1999.90;999.90;;;;;;;10.60;89.22;99901.28;10374251;28;20046;-66
2023/11/11 02:23:34;;;;;;;1999.90;999.90;;;;;;;10.50;90.46;99898.50;10374185;28;20064;-65
2023/11/11 02:28:36;;;;;;;1999.90;999.90;;;;;;;10.40;90.50;99897.47;10356891;28;20046;-66
2023/11/11 02:33:39;;;;;;;1999.90;999.90;;;;;;;9.61;93.53;99902.84;10374379;28;20050;-65
2023/11/11 02:38:41;;;;;;;1999.90;999.90;;;;;;;9.98;92.61;99902.97;10356672;28;20520;-65
2023/11/11 02:43:44;;;;;;;1999.90;999.90;;;;;;;9.84;93.35;99903.09;10375842;28;20129;-66
2023/11/11 02:48:47;;;;;;;1999.90;999.90;;;;;;;10.22;92.31;99902.19;10382019;28;20497;-66
2023/11/11 02:53:50;;;;;;;1999.90;999.90;;;;;;;9.67;95.61;99912.09;10381820;28;20053;-65
2023/11/11 02:58:52;;;;;;;1999.90;999.90;;;;;;;9.96;93.77;99911.88;10381700;28;20052;-65
2023/11/11 03:03:55;;;;;;;1999.90;999.90;;;;;;;10.21;90.29;99921.47;10364602;28;20072;-66
2023/11/11 03:08:58;;;;;;;1999.90;999.90;;;;;;;9.98;90.31;99934.34;10381452;28;20046;-65
2023/11/11 03:14:01;;;;;;;1999.90;999.90;;;;;;;10.21;89.09;99955.47;10381498;28;20436;-65
2023/11/11 03:19:04;;;;;;;1999.90;999.90;;;;;;;9.90;90.88;99949.75;10380669;28;20053;-66
2023/11/11 03:24:07;;;;;;;1999.90;999.90;;;;;;;10.14;88.18;99957.66;10338820;28;20090;-66
2023/11/11 03:29:09;;;;;;;1999.90;999.90;;;;;;;10.22;88.86;99973.69;10339871;28;20446;-65
2023/11/11 03:34:12;;;;;;;1999.90;999.90;;;;;;;10.12;86.65;100009.25;10339924;28;20046;-66
2023/11/11 03:39:14;;;;;;;1999.90;999.90;;;;;;;9.62;94.00;100011.69;10339507;28;20057;-65
2023/11/11 03:44:16;;;;;;;1999.90;999.90;;;;;;;10.19;92.93;100031.44;10338776;28;20133;-66
2023/11/11 03:49:19;;;;;;;1999.90;999.90;;;;;;;10.69;88.46;100025.44;10339312;28;20046;-66
2023/11/11 03:54:22;;;;;;;1999.90;999.90;;;;;;;10.45;86.83;100020.16;10338689;28;20100;-66
2023/11/11 03:59:24;;;;;;;1999.90;999.90;;;;;;;10.52;89.97;100021.41;10338557;28;20050;-66
2023/11/11 04:04:27;;;;;;;1999.90;999.90;;;;;;;10.54;86.98;100012.50;10338476;28;20149;-65
2023/11/11 04:09:30;;;;;;;1999.90;999.90;;;;;;;9.42;92.11;100036.50;10337458;28;20047;-65
2023/11/11 04:14:32;;;;;;;1999.90;999.90;;;;;;;10.44;89.65;100042.88;10337180;28;20133;-65
2023/11/11 04:19:38;;;;;;;1999.90;999.90;;;;;;;9.69;93.32;100047.91;10338472;28;20532;-65
2023/11/11 04:24:40;;;;;;;1999.90;999.90;;;;;;;9.99;96.38;100058.09;10371071;28;20058;-65
2023/11/11 04:29:43;;;;;;;1999.90;999.90;;;;;;;10.23;90.97;100061.66;10378625;28;20092;-66
2023/11/11 04:34:45;;;;;;;1999.90;999.90;;;;;;;10.76;89.20;100066.00;10360635;28;20386;-66
2023/11/11 04:39:47;;;;;;;1999.90;999.90;;;;;;;11.47;84.57;100071.44;10423938;22;20416;-64
2023/11/11 04:44:53;;;;;;;1999.90;999.90;;;;;;;11.64;82.53;100078.06;10418747;28;20076;-64
2023/11/11 04:49:55;;;;;;;1999.90;999.90;;;;;;;11.18;84.27;100082.25;10401273;28;20077;-64
2023/11/11 04:54:58;;;;;;;1999.90;999.90;;;;;;;10.65;88.43;100090.28;10418400;28;20053;-64
2023/11/11 05:00:00;;;;;;;1999.90;999.90;;;;;;;13.78;72.57;100089.63;10417979;28;20083;-64
2023/11/11 05:05:03;;;;;;;1999.90;999.90;;;;;;;13.92;69.97;100087.53;10416625;28;20076;-64
2023/11/11 05:10:09;;;;;;;1999.90;999.90;;;;;;;14.35;68.84;100090.16;10417080;28;20485;-64
2023/11/11 05:15:14;;;;;;;1999.90;999.90;;;;;;;14.23;69.94;100082.34;10417300;28;20053;-64
2023/11/11 05:20:18;;;;;;;1999.90;999.90;;;;;;;14.70;66.46;100091.63;10400553;28;20049;-64
2023/11/11 05:25:20;;;;;;;1999.90;999.90;;;;;;;14.13;68.61;100099.88;10417490;28;20063;-64
2023/11/11 05:30:24;;;;;;;1999.90;999.90;;;;;;;14.59;68.04;100109.19;10416767;28;20083;-64
2023/11/11 05:35:26;;;;;;;1999.90;999.90;;;;;;;15.08;65.42;100098.84;10416431;28;20050;-64
2023/11/11 05:40:30;;;;;;;1999.90;999.90;;;;;;;14.91;66.48;100105.59;10416789;28;20077;-64
2023/11/11 05:45:33;;;;;;;1999.90;999.90;;;;;;;14.03;67.00;100110.31;10416482;28;20065;-64
2023/11/11 05:50:35;;;;;;;1999.90;999.90;;;;;;;13.91;69.91;100106.91;10416093;28;20045;-64
2023/11/11 05:55:38;;;;;;;1999.90;999.90;;;;;;;13.26;68.02;100107.78;10416115;28;20060;-64
2023/11/11 06:00:40;;;;;;;1999.90;999.90;;;;;;;13.92;68.31;100103.31;10398191;28;20045;-64
2023/11/11 06:05:45;;;;;;;1999.90;999.90;;;;;;;13.08;69.29;100123.22;10398233;28;20073;-64
2023/11/11 06:10:48;;;;;;;1999.90;999.90;;;;;;;13.48;69.34;100160.38;10415738;28;20079;-64
2023/11/11 06:15:50;;;;;;;1999.90;999.90;;;;;;;12.85;72.81;100194.16;10415830;28;20053;-64
2023/11/11 06:20:53;;;;;;;1999.90;999.90;;;;;;;12.25;73.22;100169.78;10415016;28;20084;-64
2023/11/11 06:25:55;;;;;;;1999.90;999.90;;;;;;;13.00;70.86;100160.63;10415936;28;20049;-64
2023/11/11 06:30:58;;;;;;;1999.90;999.90;;;;;;;13.60;67.51;100147.19;10415282;28;20053;-64
2023/11/11 06:36:00;;;;;;;1999.90;999.90;;;;;;;14.24;66.28;100156.88;10414839;28;20107;-64
2023/11/11 06:41:03;;;;;;;1999.90;999.90;;;;;;;13.10;70.27;100156.31;10397143;28;20049;-64
2023/11/11 06:46:08;;;;;;;1999.90;999.90;;;;;;;13.71;67.63;100155.88;10413802;28;20584;-64
2023/11/11 06:51:10;;;;;;;1999.90;999.90;;;;;;;14.00;66.62;100157.94;10397624;28;20550;-64
2023/11/11 06:56:16;;;;;;;1999.90;999.90;;;;;;;13.95;67.69;100162.75;10414461;28;20192;-64
2023/11/11 07:01:23;;;;;;;1999.90;999.90;;;;;;;12.91;68.70;100167.44;10396838;28;20401;-64
2023/11/11 07:06:25;;;;;;;1999.90;999.90;;;;;;;12.04;76.29;100169.59;10414358;28;20497;-64
2023/11/11 07:11:28;;;;;;;1999.90;999.90;;;;;;;12.88;72.01;100179.94;10397460;28;20124;-64
2023/11/11 07:16:32;;;;;;;1999.90;999.90;;;;;;;12.57;72.53;100185.75;10414051;28;20488;-64
2023/11/11 07:21:35;;;;;;;1999.90;999.90;;;;;;;13.46;68.91;100193.00;10414160;28;20049;-64
2023/11/11 07:26:41;;;;;;;1999.90;999.90;;;;;;;13.00;69.74;100206.13;10414034;28;20269;-64
2023/11/11 07:31:44;;;;;;;1999.90;999.90;;;;;;;13.13;69.94;100223.56;10417232;28;20053;-64
2023/11/11 07:36:46;;;;;;;1999.90;999.90;;;;;;;13.27;70.85;100231.22;10421187;28;20440;-64
2023/11/11 07:41:50;;;;;;;1999.90;999.90;;;;;;;13.47;68.48;100221.00;10421358;28;20535;-64
2023/11/11 07:46:53;;;;;;;1999.90;999.90;;;;;;;13.04;68.22;100221.66;10420778;28;20575;-64
2023/11/11 07:51:55;;;;;;;1999.90;999.90;;;;;;;13.53;67.16;100220.50;10403065;28;20041;-64
2023/11/11 07:56:58;;;;;;;1999.90;999.90;;;;;;;13.20;69.63;100211.66;10420558;28;20111;-64
2023/11/11 08:02:00;;;;;;;1999.90;999.90;;;;;;;14.80;66.45;100219.81;10402650;28;20045;-64
2023/11/11 08:07:03;;;;;;;1999.90;999.90;;;;;;;16.64;59.71;100209.00;10420321;28;20084;-64
2023/11/11 08:12:06;;;;;;;1999.90;999.90;;;;;;;14.95;63.79;100216.88;10419801;28;20499;-64
2023/11/11 08:17:08;;;;;;;1999.90;999.90;;;;;;;14.46;65.38;100219.16;10402090;28;20053;-64
2023/11/11 08:22:10;;;;;;;1999.90;999.90;;;;;;;15.34;63.86;100227.59;10419583;28;20049;-64
2023/11/11 08:27:13;;;;;;;1999.90;999.90;;;;;;;16.24;58.28;100237.28;10419234;28;20045;-64
2023/11/11 08:32:17;;;;;;;1999.90;999.90;;;;;;;13.41;69.11;100258.28;10419249;28;20051;-64
2023/11/11 08:37:19;;;;;;;1999.90;999.90;;;;;;;13.21;69.73;100263.25;10401726;28;20053;-64
2023/11/11 08:42:22;;;;;;;1999.90;999.90;;;;;;;14.80;68.42;100258.53;10418612;28;20053;-64
2023/11/11 08:47:27;;;;;;;1999.90;999.90;;;;;;;16.39;61.31;100263.25;10418553;28;20056;-64
2023/11/11 08:52:30;;;;;;;1999.90;999.90;;;;;;;14.78;64.03;100266.56;10400656;28;20045;-64
2023/11/11 08:57:32;;;;;;;1999.90;999.90;;;;;;;13.28;70.76;100268.88;10418053;28;20385;-64
2023/11/11 09:02:36;;;;;;;1999.90;999.90;;;;;;;14.24;68.35;100256.94;10417785;28;20052;-64
2023/11/11 09:07:38;;;;;;;1999.90;999.90;;;;;;;14.09;68.50;100265.13;10400317;28;20057;-68
2023/11/11 09:12:40;;;;;;;1999.90;999.90;;;;;;;13.53;70.19;100276.56;10417398;28;20046;-68
2023/11/11 09:17:43;;;;;;;1999.90;999.90;;;;;;;15.58;61.46;100275.59;10400502;28;20124;-68
2023/11/11 09:22:46;;;;;;;1999.90;999.90;;;;;;;18.23;61.48;100268.97;10416381;28;20528;-70
2023/11/11 09:27:48;;;;;;;1999.90;999.90;;;;;;;18.85;55.70;100273.50;10416821;28;20049;-70
2023/11/11 09:32:51;;;;;;;1999.90;999.90;;;;;;;19.27;54.71;100281.56;10399473;28;20045;-70
2023/11/11 09:37:53;;;;;;;1999.90;999.90;;;;;;;19.84;55.90;100274.88;10416708;28;20104;-66
2023/11/11 09:42:56;;;;;;;1999.90;999.90;;;;;;;20.64;51.51;100278.84;10399267;28;20392;-66
2023/11/11 09:48:03;;;;;;;1999.90;999.90;;;;;;;20.28;50.94;100285.28;10382478;28;20455;-66
2023/11/11 09:53:06;;;;;;;1999.90;999.90;;;;;;;20.39;52.33;100292.94;10416262;28;20077;-66
2023/11/11 09:58:08;;;;;;;1999.90;999.90;;;;;;;17.78;58.94;100305.00;10398472;28;20053;-67
2023/11/11 10:03:13;;;;;;;1999.90;999.90;;;;;;;20.07;52.11;100311.47;10398137;28;20059;-70
2023/11/11 10:08:15;;;;;;;1999.90;999.90;;;;;;;15.19;61.16;100319.41;10415745;28;20060;-64
2023/11/11 10:13:19;;;;;;;1999.90;999.90;;;;;;;17.25;62.22;100319.72;10398112;28;20091;-64
2023/11/11 10:18:21;;;;;;;1999.90;999.90;;;;;;;16.71;62.77;100316.69;10398106;28;20050;-64
2023/11/11 10:23:25;;;;;;;1999.90;999.90;;;;;;;15.64;67.06;100321.72;10397856;28;20107;-64
2023/11/11 10:28:30;;;;;;;1999.90;999.90;;;;;;;16.56;63.47;100310.16;10415075;28;20392;-64
2023/11/11 10:33:34;;;;;;;1999.90;999.90;;;;;;;16.46;62.30;100298.75;10398021;28;20099;-64
2023/11/11 10:38:39;;;;;;;1999.90;999.90;;;;;;;16.15;61.80;100304.97;10397849;28;20141;-64
2023/11/11 10:43:44;;;;;;;1999.90;999.90;;;;;;;17.00;60.96;100307.91;10415059;28;20053;-65
2023/11/11 10:48:47;;;;;;;1999.90;999.90;;;;;;;16.33;63.01;100312.22;10397436;28;20045;-64
2023/11/11 10:53:49;;;;;;;1999.90;999.90;;;;;;;16.95;62.72;100318.09;10414838;28;20049;-64
2023/11/11 10:58:55;;;;;;;1999.90;999.90;;;;;;;16.58;63.28;100316.13;10380921;28;20051;-64
2023/11/11 11:03:58;;;;;;;1999.90;999.90;;;;;;;15.92;63.22;100317.56;10413194;28;20409;-64
2023/11/11 11:09:30;;;;;;;1999.90;999.90;;;;;;;15.11;65.64;100319.22;10403711;28;20386;-64
2023/11/11 11:14:55;;;;;;;1999.90;999.90;;;;;;;15.89;64.49;100312.53;10422121;28;20489;-64
2023/11/11 11:20:08;;;;;;;1999.90;999.90;;;;;;;15.74;65.67;100327.88;10388797;28;20041;-64
2023/11/11 11:25:33;;;;;;;1999.90;999.90;;;;;;;14.84;67.89;100324.03;10405204;28;20460;-64
2023/11/11 11:30:48;;;;;;;1999.90;999.90;;;;;;;15.56;64.45;100326.81;10404080;28;20061;-64
2023/11/11 11:35:53;;;;;;;1999.90;999.90;;;;;;;15.45;66.50;100334.81;10404156;28;20061;-64
2023/11/11 11:41:05;;;;;;;1999.90;999.90;;;;;;;15.87;64.84;100326.81;10403532;28;20404;-64
2023/11/11 11:46:08;;;;;;;1999.90;999.90;;;;;;;15.21;65.55;100328.88;10420875;28;20160;-64
2023/11/11 11:51:16;;;;;;;1999.90;999.90;;;;;;;14.27;66.09;100327.78;10420716;28;20045;-64
2023/11/11 11:56:29;;;;;;;1999.90;999.90;;;;;;;15.83;63.51;100334.19;10420442;28;20129;-64
2023/11/11 12:01:34;;;;;;;1999.90;999.90;;;;;;;15.55;63.54;100341.81;10402705;28;20046;-64
2023/11/11 12:06:38;;;;;;;1999.90;999.90;;;;;;;15.95;63.50;100335.78;10420447;28;20111;-64
2023/11/11 12:11:40;;;;;;;1999.90;999.90;;;;;;;16.99;60.82;100331.84;10402582;28;20129;-64
2023/11/11 12:16:44;;;;;;;1999.90;999.90;;;;;;;15.81;62.77;100338.75;10419196;28;20095;-64
2023/11/11 12:21:49;;;;;;;1999.90;999.90;;;;;;;15.35;64.57;100345.31;10419736;28;20060;-64
2023/11/11 12:26:55;;;;;;;1999.90;999.90;;;;;;;16.34;62.22;100332.38;10401983;28;20053;-64
2023/11/11 12:32:01;;;;;;;1999.90;999.90;;;;;;;16.64;61.99;100333.22;10419426;28;20045;-64
2023/11/11 12:37:04;;;;;;;1999.90;999.90;;;;;;;16.36;61.84;100335.72;10419072;28;20058;-64
2023/11/11 12:42:07;;;;;;;1999.90;999.90;;;;;;;16.62;59.82;100329.91;10418794;28;20405;-64
2023/11/11 12:47:10;;;;;;;1999.90;999.90;;;;;;;15.45;62.19;100340.09;10418540;28;20507;-64
2023/11/11 12:52:16;;;;;;;1999.90;999.90;;;;;;;15.85;63.00;100339.31;10400896;28;20087;-64
2023/11/11 12:57:27;;;;;;;1999.90;999.90;;;;;;;16.07;62.18;100344.41;10401296;28;20057;-64
2023/11/11 13:02:30;;;;;;;1999.90;999.90;;;;;;;16.59;60.41;100330.16;10418168;28;20048;-64
2023/11/11 13:07:32;;;;;;;1999.90;999.90;;;;;;;16.82;60.08;100342.13;10400207;28;20053;-64
2023/11/11 13:12:35;;;;;;;1999.90;999.90;;;;;;;16.23;62.80;100353.63;10399985;28;20505;-64
2023/11/11 13:17:37;;;;;;;1999.90;999.90;;;;;;;16.48;63.39;100347.81;10417362;28;20132;-64
2023/11/11 13:22:40;;;;;;;1999.90;999.90;;;;;;;15.72;63.67;100353.56;10417179;28;20077;-64
2023/11/11 13:27:42;;;;;;;1999.90;999.90;;;;;;;16.35;62.28;100357.81;10416145;28;20128;-64
2023/11/11 13:32:44;;;;;;;1999.90;999.90;;;;;;;16.37;62.00;100366.44;10416744;28;20060;-64
2023/11/11 13:37:47;;;;;;;1999.90;999.90;;;;;;;15.42;64.65;100373.69;10416397;28;20156;-64
2023/11/11 13:42:50;;;;;;;1999.90;999.90;;;;;;;15.50;63.74;100374.81;10416228;28;20112;-64
2023/11/11 13:47:55;;;;;;;1999.90;999.90;;;;;;;16.66;61.36;100381.50;10416257;28;20059;-64
2023/11/11 13:52:59;;;;;;;1999.90;999.90;;;;;;;16.31;62.57;100381.03;10416173;28;20099;-64
2023/11/11 13:58:01;;;;;;;1999.90;999.90;;;;;;;17.07;61.47;100371.66;10416141;28;20051;-64
2023/11/11 14:03:10;;;;;;;1999.90;999.90;;;;;;;17.09;60.21;100378.47;10415789;28;20133;-64
2023/11/11 14:08:17;;;;;;;1999.90;999.90;;;;;;;16.60;61.37;100388.16;10383145;28;20045;-64
2023/11/11 14:13:20;;;;;;;1999.90;999.90;;;;;;;16.37;61.90;100384.09;10398558;28;20049;-64
2023/11/11 14:18:22;;;;;;;1999.90;999.90;;;;;;;16.41;62.01;100391.63;10415968;28;20128;-64
2023/11/11 14:23:25;;;;;;;1999.90;999.90;;;;;;;16.76;60.54;100402.66;10415399;28;20401;-64
2023/11/11 14:28:29;;;;;;;1999.90;999.90;;;;;;;16.35;62.29;100416.75;10397505;28;20215;-64
2023/11/11 14:33:32;;;;;;;1999.90;999.90;;;;;;;16.37;62.18;100416.63;10414996;28;20069;-64
2023/11/11 14:38:35;;;;;;;1999.90;999.90;;;;;;;15.70;62.07;100408.28;10414689;28;20057;-64
2023/11/11 14:43:37;;;;;;;1999.90;999.90;;;;;;;15.65;63.14;100407.84;10423300;28;20055;-64
2023/11/11 14:48:40;;;;;;;1999.90;999.90;;;;;;;15.91;61.86;100413.53;10423145;28;20216;-64
2023/11/11 14:53:42;;;;;;;1999.90;999.90;;;;;;;16.50;61.81;100422.50;10422946;28;20080;-64
2023/11/11 14:58:45;;;;;;;1999.90;999.90;;;;;;;16.02;62.71;100423.19;10422953;28;20132;-64
2023/11/11 15:03:47;;;;;;;1999.90;999.90;;;;;;;15.58;64.06;100428.63;10422536;28;20083;-64
2023/11/11 15:08:53;;;;;;;1999.90;999.90;;;;;;;16.29;62.52;100434.94;10422516;28;20081;-64
2023/11/11 15:13:58;;;;;;;1999.90;999.90;;;;;;;16.71;61.13;100440.09;10422165;28;20552;-64
2023/11/11 15:19:01;;;;;;;1999.90;999.90;;;;;;;16.47;62.54;100441.25;10404976;28;20087;-64
2023/11/11 15:24:07;;;;;;;1999.90;999.90;;;;;;;16.47;61.84;100438.63;10421662;28;20049;-64
2023/11/11 15:29:09;;;;;;;1999.90;999.90;;;;;;;16.36;62.79;100449.31;10421872;28;20050;-64
2023/11/11 15:34:12;;;;;;;1999.90;999.90;;;;;;;16.41;62.37;100452.41;10421522;28;20053;-64
2023/11/11 15:39:22;;;;;;;1999.90;999.90;;;;;;;15.66;64.09;100462.28;10403489;28;20489;-64
2023/11/11 15:44:24;;;;;;;1999.90;999.90;;;;;;;14.75;67.16;100471.53;10404800;28;20095;-64
2023/11/11 15:49:28;;;;;;;1999.90;999.90;;;;;;;15.22;66.32;100467.66;10420858;28;20050;-64
2023/11/11 15:54:32;;;;;;;1999.90;999.90;;;;;;;14.23;68.50;100479.06;10402607;28;20057;-64
2023/11/11 15:59:37;;;;;;;1999.90;999.90;;;;;;;15.41;65.44;100471.41;10420344;28;20052;-64
2023/11/11 16:04:40;;;;;;;1999.90;999.90;;;;;;;15.53;65.34;100480.09;10420179;28;20500;-64
2023/11/11 16:09:42;;;;;;;1999.90;999.90;;;;;;;14.88;66.71;100477.47;10402824;28;20508;-64
2023/11/11 16:14:45;;;;;;;1999.90;999.90;;;;;;;15.15;66.07;100471.75;10402238;28;20091;-64
2023/11/11 16:19:47;;;;;;;1999.90;999.90;;;;;;;14.64;67.01;100469.72;10418542;28;20128;-64
2023/11/11 16:24:50;;;;;;;1999.90;999.90;;;;;;;15.07;65.24;100461.00;10419487;28;20089;-64
2023/11/11 16:29:52;;;;;;;1999.90;999.90;;;;;;;14.84;67.37;100462.84;10419209;28;20504;-64
2023/11/11 16:34:57;;;;;;;1999.90;999.90;;;;;;;15.17;65.53;100469.00;10419187;28;20049;-64
2023/11/11 16:40:01;;;;;;;1999.90;999.90;;;;;;;15.13;64.00;100473.69;10419106;28;20412;-64
2023/11/11 16:45:08;;;;;;;1999.90;999.90;;;;;;;15.16;63.61;100485.78;10418832;28;20058;-64
2023/11/11 16:50:14;;;;;;;1999.90;999.90;;;;;;;15.98;61.73;100496.53;10426114;22;20408;-65
2023/11/11 16:55:16;;;;;;;1999.90;999.90;;;;;;;15.48;62.96;100498.94;10418420;28;20431;-65
2023/11/11 17:00:19;;;;;;;1999.90;999.90;;;;;;;14.57;64.76;100495.69;10400508;28;20051;-65
2023/11/11 17:05:22;;;;;;;1999.90;999.90;;;;;;;15.37;63.05;100497.22;10418067;28;20080;-65
2023/11/11 17:10:25;;;;;;;1999.90;999.90;;;;;;;15.37;63.19;100505.13;10417752;28;20052;-65
2023/11/11 17:15:27;;;;;;;1999.90;999.90;;;;;;;14.55;63.60;100516.06;10417810;28;20060;-65
2023/11/11 17:20:30;;;;;;;1999.90;999.90;;;;;;;14.01;65.93;100525.47;10417239;28;20408;-65
2023/11/11 17:25:33;;;;;;;1999.90;999.90;;;;;;;14.33;65.80;100521.34;10399681;28;20049;-65
2023/11/11 17:30:35;;;;;;;1999.90;999.90;;;;;;;14.22;64.68;100520.38;10417121;28;20056;-65
2023/11/11 17:35:37;;;;;;;1999.90;999.90;;;;;;;13.94;66.42;100522.47;10416681;28;20045;-65
2023/11/11 17:40:40;;;;;;;1999.90;999.90;;;;;;;14.47;64.95;100523.72;10416730;28;20055;-65
2023/11/11 17:45:42;;;;;;;1999.90;999.90;;;;;;;14.49;63.77;100516.53;10416480;28;20045;-65
2023/11/11 17:50:44;;;;;;;1999.90;999.90;;;;;;;14.17;66.08;100526.94;10398734;28;20053;-65
2023/11/11 17:55:47;;;;;;;1999.90;999.90;;;;;;;14.19;65.29;100522.38;10415010;28;20071;-65
2023/11/11 18:00:49;;;;;;;1999.90;999.90;;;;;;;14.20;65.62;100529.34;10415890;28;20042;-65
2023/11/11 18:05:51;;;;;;;1999.90;999.90;;;;;;;14.05;66.05;100516.38;10416071;28;20046;-65
2023/11/11 18:10:54;;;;;;;1999.90;999.90;;;;;;;14.24;63.46;100522.88;10415361;28;20559;-65
2023/11/11 18:15:56;;;;;;;1999.90;999.90;;;;;;;14.26;64.78;100527.06;10397606;28;20050;-65
2023/11/11 18:20:59;;;;;;;1999.90;999.90;;;;;;;13.83;65.55;100513.72;10415410;28;20132;-65
2023/11/11 18:26:01;;;;;;;1999.90;999.90;;;;;;;13.60;68.04;100523.31;10415321;28;20061;-65
2023/11/11 18:31:04;;;;;;;1999.90;999.90;;;;;;;13.98;66.15;100528.34;10415191;28;20132;-65
2023/11/11 18:36:08;;;;;;;1999.90;999.90;;;;;;;12.95;70.05;100531.47;10397566;28;20053;-65
2023/11/11 18:41:11;;;;;;;1999.90;999.90;;;;;;;13.46;68.21;100521.72;10397702;28;20053;-65
2023/11/11 18:46:17;;;;;;;1999.90;999.90;;;;;;;13.14;68.57;100525.72;10397754;28;20060;-65
2023/11/11 18:51:19;;;;;;;1999.90;999.90;;;;;;;12.70;70.20;100521.88;10397460;28;20485;-65
2023/11/11 18:56:27;;;;;;;1999.90;999.90;;;;;;;13.52;68.57;100522.13;10414597;28;20092;-65
2023/11/11 19:01:30;;;;;;;1999.90;999.90;;;;;;;13.25;68.59;100516.25;10397104;28;20073;-65
2023/11/11 19:06:32;;;;;;;1999.90;999.90;;;;;;;13.00;69.43;100536.41;10414396;28;20453;-65
2023/11/11 19:11:36;;;;;;;1999.90;999.90;;;;;;;13.13;69.83;100524.06;10414852;28;20065;-65
2023/11/11 19:16:41;;;;;;;1999.90;999.90;;;;;;;13.33;69.09;100522.63;10414758;28;20072;-65
2023/11/11 19:21:44;;;;;;;1999.90;999.90;;;;;;;13.08;68.53;100525.31;10396593;28;20049;-65
2023/11/11 19:26:46;;;;;;;1999.90;999.90;;;;;;;13.42;67.38;100525.53;10415610;28;20075;-65
2023/11/11 19:31:49;;;;;;;1999.90;999.90;;;;;;;13.13;68.65;100525.81;10421567;28;20103;-65
2023/11/11 19:36:51;;;;;;;1999.90;999.90;;;;;;;14.01;66.65;100525.47;10421846;28;20096;-65
2023/11/11 19:41:54;;;;;;;1999.90;999.90;;;;;;;13.86;65.60;100524.84;10421477;28;20045;-65
2023/11/11 19:46:57;;;;;;;1999.90;999.90;;;;;;;13.04;69.63;100527.34;10419794;28;20465;-65
2023/11/11 19:51:59;;;;;;;1999.90;999.90;;;;;;;13.59;68.64;100514.59;10420598;28;20053;-65
2023/11/11 19:57:02;;;;;;;1999.90;999.90;;;;;;;12.92;70.50;100530.84;10420694;28;20049;-65
2023/11/11 20:02:05;;;;;;;1999.90;999.90;;;;;;;13.31;67.55;100529.75;10420386;28;20053;-65
2023/11/11 20:07:08;;;;;;;1999.90;999.90;;;;;;;13.15;70.46;100531.84;10420871;28;20049;-65
2023/11/11 20:12:10;;;;;;;1999.90;999.90;;;;;;;12.82;69.08;100525.41;10402464;28;20378;-65
2023/11/11 20:17:14;;;;;;;1999.90;999.90;;;;;;;12.95;70.96;100525.38;10420037;28;20046;-65
2023/11/11 20:22:16;;;;;;;1999.90;999.90;;;;;;;13.00;69.58;100518.84;10419655;28;20053;-65
2023/11/11 20:27:19;;;;;;;1999.90;999.90;;;;;;;12.55;69.37;100518.53;10419726;28;20051;-66
2023/11/11 20:32:23;;;;;;;1999.90;999.90;;;;;;;13.61;67.97;100512.69;10401781;28;20424;-65
2023/11/11 20:37:26;;;;;;;1999.90;999.90;;;;;;;13.42;68.56;100497.44;10418735;28;20168;-65
2023/11/11 20:42:28;;;;;;;1999.90;999.90;;;;;;;13.08;70.40;100493.78;10419053;28;20045;-65
2023/11/11 20:47:31;;;;;;;1999.90;999.90;;;;;;;13.14;69.65;100488.91;10418712;28;20053;-65
2023/11/11 20:52:33;;;;;;;1999.90;999.90;;;;;;;13.62;68.63;100474.09;10385022;28;20128;-65
2023/11/11 20:57:36;;;;;;;1999.90;999.90;;;;;;;11.68;74.15;100484.19;10418381;28;20084;-64
2023/11/11 21:02:41;;;;;;;1999.90;999.90;;;;;;;13.22;70.53;100466.50;10418805;28;20049;-65
2023/11/11 21:07:47;;;;;;;1999.90;999.90;;;;;;;13.27;70.44;100472.25;10401030;28;20060;-65
2023/11/11 21:12:50;;;;;;;1999.90;999.90;;;;;;;13.32;70.82;100475.41;10400760;28;20107;-65
2023/11/11 21:17:52;;;;;;;1999.90;999.90;;;;;;;13.47;70.40;100471.66;10417679;28;20045;-65
2023/11/11 21:22:57;;;;;;;1999.90;999.90;;;;;;;13.93;68.61;100476.03;10417230;28;20088;-64
2023/11/11 21:27:59;;;;;;;1999.90;999.90;;;;;;;13.45;69.19;100472.69;10417156;28;20063;-65
2023/11/11 21:33:02;;;;;;;1999.90;999.90;;;;;;;13.51;68.94;100474.88;10416885;28;20049;-65
2023/11/11 21:38:05;;;;;;;1999.90;999.90;;;;;;;13.72;68.35;100475.91;10416718;28;20050;-65
2023/11/11 21:43:07;;;;;;;1999.90;999.90;;;;;;;13.29;69.39;100486.97;10416402;28;20459;-65
2023/11/11 21:48:10;;;;;;;1999.90;999.90;;;;;;;13.48;68.69;100483.84;10416133;28;20148;-65
2023/11/11 21:53:14;;;;;;;1999.90;999.90;;;;;;;12.77;73.86;100488.13;10415678;28;20084;-65
2023/11/11 21:58:16;;;;;;;1999.90;999.90;;;;;;;13.30;70.86;100475.50;10398411;28;20057;-65
2023/11/11 22:03:19;;;;;;;1999.90;999.90;;;;;;;13.30;69.81;100477.31;10416072;28;20103;-66